This demonstration page uses our WeatherBlox Daily Observations layout. Learn more.

38.88101, -77.10428

Hourly Observations for June 3, 2019

Temp ( °F °C ) Dew Point ( °F °C ) Humidity (%) Winds ( mph kmh ) Pressure ( in mb ) Visibility ( mi km ) Precip ( " mm )
12:52 am 00:52 Mostly Cloudy 68 20 61 16.1 78 78 NNW 9 15 29.83 1010 10 16.09344 0 0
1:52 am 01:52 Partly Cloudy 66 18.9 53 11.7 63 63 NNW 14 22 29.83 1010 10 16.09344 0 0
2:52 am 02:52 Partly Cloudy 63 17.2 53 11.7 70 70 NNW 12 19 29.85 1011 10 16.09344 0 0
3:52 am 03:52 Mostly Cloudy 61 16.1 50 10 67 67 NNW 7 11 29.85 1011 10 16.09344 0 0
5:52 am 05:52 Mostly Cloudy 59 15 48 8.9 67 67 N 7 11 29.91 1013 10 16.09344 0 0
6:52 am 06:52 Mostly Cloudy 60 15.6 49 9.4 67 67 Calm 29.91 1013 10 16.09344 0 0
7:52 am 07:52 Partly Cloudy 66 18.9 50 10 56 56 SW 3 6 29.94 1014 10 16.09344 0 0
8:52 am 08:52 Partly Cloudy 69 20.6 49 9.4 49 49 W 5 7 29.94 1014 10 16.09344 0 0
9:52 am 09:52 Partly Cloudy 71 21.7 48 8.9 44 44 NW 10 17 29.97 1015 10 16.09344 0 0
10:52 am 10:52 Partly Cloudy 72 22.2 50 10 46 46 NW 15 24 29.97 1015 10 16.09344 0 0
11:52 am 11:52 Partly Cloudy 72 22.2 50 10 46 46 N 14 22 29.97 1015 10 16.09344 0 0
12:52 pm 12:52 Partly Cloudy 74 23.3 44 6.7 34 34 NW 15 24 29.97 1015 10 16.09344 0 0
1:52 pm 13:52 Mostly Sunny 74 23.3 40 4.4 29 29 NW 18 30 30 1016 10 16.09344 0 0
2:52 pm 14:52 Mostly Sunny 75 23.9 39 3.9 27 27 NNW 18 30 30 1016 10 16.09344 0 0
3:52 pm 15:52 Mostly Sunny 76 24.4 39 3.9 26 26 NNW 14 22 29.97 1015 10 16.09344 0 0
4:52 pm 16:52 Mostly Sunny 74 23.3 36 2.2 25 25 NNW 17 28 29.97 1015 10 16.09344 0 0
5:52 pm 17:52 Mostly Sunny 74 23.3 35 1.7 24 24 NNW 18 30 30 1016 10 16.09344 0 0
6:52 pm 18:52 Mostly Sunny 72 22.2 34 1.1 25 25 NNW 13 20 30 1016 10 16.09344 0 0
7:52 pm 19:52 Mostly Sunny 70 21.1 35 1.7 28 28 N 13 20 30.03 1017 10 16.09344 0 0
8:52 pm 20:52 Mostly Clear 69 20.6 35 1.7 29 29 NW 10 17 30.06 1018 10 16.09344 0 0
9:52 pm 21:52 Clear 66 18.9 36 2.2 33 33 NNW 9 15 30.06 1018 10 16.09344 0 0
10:52 pm 22:52 Clear 65 18.3 37 2.8 36 36 NW 8 13 30.09 1019 10 16.09344 0 0
11:52 pm 23:52 Clear 62 16.7 38 3.3 41 41 NNW 6 9 30.09 1019 10 16.09344 0 0

Powered by AerisWeather